Shelby County Airport Alabaster US
ICAO: KEET
IATA: EET
Category: Medium
Scheduled Services: No

Elevation: 586 ft
TransAlt. 18000 ft.

Airport Communications:
BIRMINGHAM APP/DEP:123.8
ASOS:134.325
CTAF/UNICOM:122.7

KEET Zoom In..

Runways:

(A) RW 16 length 5000 ft width 75 ft
---- / hdg 160

(B) RW 34 length 5000 ft width 75 ft
---- / hdg 340

Location; KEET
Day. 15 / Time. 21.53 Zulu
* Altimeter: 29.98
* Temperature: 32° c. 89.6°f.
* Wind from: 000° Speed 00 kn.
Dewpoint: 23° c.
Visibility: 10 Statute Miles.
Clouds: Few 4300 ft.
Clouds: Scattered 8000 ft.
Clouds: Broken 11000 ft.

KEET 152153Z AUTO 00000KT 10SM FEW043 SCT080 BKN110 32/23 A2998 RMK AO2 SLP143 T03220228 TSNO


Wind - Calm.

 
 
jpsmedia.com for Web Design worldairports.se 2018   terms of use